createdAt,value
2022-10-10T00:01:28.886Z,101005.47
2022-10-10T00:03:57.113Z,100999.41
2022-10-10T00:06:28.144Z,100998.78
2022-10-10T00:08:59.658Z,100992.78
2022-10-10T00:11:28.606Z,100982.28
2022-10-10T00:13:56.240Z,100981.56
2022-10-10T00:16:24.511Z,100986.94
2022-10-10T00:18:52.314Z,100984.38
2022-10-10T00:21:20.060Z,100985.44
2022-10-10T00:23:47.725Z,100987.34
2022-10-10T00:26:18.901Z,100992.72
2022-10-10T00:28:48.072Z,100991.13
2022-10-10T00:31:16.029Z,100989.44
2022-10-10T00:33:43.656Z,100992.19
2022-10-10T00:36:11.636Z,100987.00
2022-10-10T00:38:39.179Z,100983.63
2022-10-10T00:41:06.818Z,100985.41
2022-10-10T00:43:35.219Z,100987.22
2022-10-10T00:46:04.221Z,100975.81
2022-10-10T00:48:34.247Z,100978.53
2022-10-10T00:51:06.266Z,100975.03
2022-10-10T00:53:37.949Z,100978.75
2022-10-10T00:56:06.916Z,100979.59
2022-10-10T00:58:35.802Z,100979.88
2022-10-10T01:01:04.840Z,100973.88
2022-10-10T01:03:32.394Z,100976.63
2022-10-10T01:06:00.449Z,100980.19
2022-10-10T01:08:28.705Z,100970.66
2022-10-10T01:11:10.764Z,100973.41
2022-10-10T01:13:48.995Z,100969.13
2022-10-10T01:16:27.781Z,100980.75
2022-10-10T01:19:04.058Z,100984.34
2022-10-10T01:21:38.857Z,100980.09
2022-10-10T01:24:31.845Z,100975.03
2022-10-10T01:27:30.994Z,100974.38
2022-10-10T01:30:03.681Z,100971.09
2022-10-10T01:32:34.076Z,100975.72
2022-10-10T01:35:15.810Z,100968.94
2022-10-10T01:37:49.885Z,100964.81
2022-10-10T01:40:25.610Z,100967.66
2022-10-10T01:42:56.565Z,100961.72
2022-10-10T01:45:25.970Z,100959.28
2022-10-10T01:47:56.849Z,100955.91
2022-10-10T01:50:27.429Z,100954.41
2022-10-10T01:53:06.224Z,100947.63
2022-10-10T01:55:48.938Z,100946.13
2022-10-10T01:58:37.702Z,100941.88
2022-10-10T02:01:17.755Z,100935.88
2022-10-10T02:03:48.671Z,100941.31
2022-10-10T02:06:22.609Z,100939.00
2022-10-10T02:08:52.767Z,100940.97
2022-10-10T02:11:20.532Z,100937.69
2022-10-10T02:13:51.031Z,100934.28
2022-10-10T02:16:25.145Z,100931.75
2022-10-10T02:18:54.749Z,100927.50
2022-10-10T02:21:24.068Z,100929.41
2022-10-10T02:23:55.001Z,100924.31
2022-10-10T02:26:26.115Z,100932.31
2022-10-10T02:28:58.622Z,100926.41
2022-10-10T02:31:33.414Z,100923.00
2022-10-10T02:34:07.466Z,100923.13
2022-10-10T02:36:36.021Z,100920.47
2022-10-10T02:39:04.477Z,100911.81
2022-10-10T02:41:34.221Z,100910.97
2022-10-10T02:44:02.163Z,100918.97
2022-10-10T02:46:31.129Z,100906.94
2022-10-10T02:48:59.449Z,100912.38
2022-10-10T02:51:30.292Z,100909.09
2022-10-10T02:53:58.094Z,100905.81
2022-10-10T02:56:25.576Z,100903.34
2022-10-10T02:58:53.222Z,100896.50
2022-10-10T03:01:20.884Z,100898.38
2022-10-10T03:03:49.916Z,100901.19
2022-10-10T03:06:17.659Z,100901.28
2022-10-10T03:08:45.451Z,100895.25
2022-10-10T03:11:12.997Z,100891.97
2022-10-10T03:13:40.633Z,100896.50
2022-10-10T03:16:08.202Z,100890.47
2022-10-10T03:18:35.779Z,100884.44
2022-10-10T03:21:05.158Z,100888.94
2022-10-10T03:23:34.378Z,100890.75
2022-10-10T03:26:02.288Z,100886.53
2022-10-10T03:28:29.900Z,100883.97
2022-10-10T03:30:57.655Z,100884.16
2022-10-10T03:33:25.262Z,100884.16
2022-10-10T03:35:52.877Z,100878.16
2022-10-10T03:38:21.775Z,100882.63
2022-10-10T03:40:49.571Z,100875.78
2022-10-10T03:43:17.350Z,100882.94
2022-10-10T03:45:47.473Z,100881.31
2022-10-10T03:48:15.539Z,100879.84
2022-10-10T03:50:43.187Z,100865.91
2022-10-10T03:53:10.915Z,100867.78
2022-10-10T03:55:41.729Z,100866.09
2022-10-10T03:58:09.346Z,100864.47
2022-10-10T04:00:37.099Z,100862.78
2022-10-10T04:03:06.397Z,100859.41
2022-10-10T04:05:35.309Z,100852.53
2022-10-10T04:08:03.063Z,100850.84
2022-10-10T04:10:30.627Z,100855.34
2022-10-10T04:12:59.578Z,100854.63
2022-10-10T04:15:27.803Z,100849.34
2022-10-10T04:17:55.471Z,100850.38
2022-10-10T04:20:23.047Z,100846.97
2022-10-10T04:22:50.941Z,100843.50
2022-10-10T04:25:18.907Z,100837.41
2022-10-10T04:27:46.446Z,100835.69
2022-10-10T04:30:15.726Z,100842.84
2022-10-10T04:32:43.285Z,100835.13
2022-10-10T04:35:11.773Z,100832.56
2022-10-10T04:37:39.339Z,100829.09
2022-10-10T04:40:07.699Z,100824.03
2022-10-10T04:42:35.300Z,100836.34
2022-10-10T04:45:02.819Z,100832.94
2022-10-10T04:47:31.713Z,100830.41
2022-10-10T04:49:59.316Z,100830.50
2022-10-10T04:52:26.934Z,100829.66
2022-10-10T04:54:54.504Z,100831.44
2022-10-10T04:57:22.079Z,100827.09
2022-10-10T04:59:49.618Z,100829.72
2022-10-10T05:02:17.209Z,100826.34
2022-10-10T05:04:46.267Z,100829.09
2022-10-10T05:07:13.850Z,100822.03
2022-10-10T05:09:41.498Z,100820.41
2022-10-10T05:12:09.045Z,100826.63
2022-10-10T05:14:36.686Z,100824.84
2022-10-10T05:17:04.570Z,100823.16
2022-10-10T05:19:32.122Z,100815.34
2022-10-10T05:22:01.372Z,100823.25
2022-10-10T05:24:29.158Z,100817.22
2022-10-10T05:26:56.715Z,100822.50
2022-10-10T05:29:24.348Z,100824.25
2022-10-10T05:31:52.000Z,100826.81
2022-10-10T05:34:19.489Z,100826.81
2022-10-10T05:36:47.131Z,100823.25
2022-10-10T05:39:16.020Z,100819.00
2022-10-10T05:41:43.534Z,100830.38
2022-10-10T05:44:11.193Z,100819.00
2022-10-10T05:46:38.785Z,100821.72
2022-10-10T05:49:06.365Z,100822.66
2022-10-10T05:51:33.919Z,100820.88
2022-10-10T05:54:01.513Z,100820.97
2022-10-10T05:56:30.481Z,100824.34
2022-10-10T05:58:58.009Z,100822.56
2022-10-10T06:01:25.550Z,100818.25
2022-10-10T06:03:55.880Z,100820.78
2022-10-10T06:06:23.940Z,100815.44
2022-10-10T06:08:51.919Z,100816.19
2022-10-10T06:11:20.621Z,100818.72
2022-10-10T06:13:53.969Z,100822.97
2022-10-10T06:16:21.895Z,100816.78
2022-10-10T06:18:49.636Z,100815.72
2022-10-10T06:21:18.031Z,100816.56
2022-10-10T06:23:45.994Z,100826.19
2022-10-10T06:26:13.673Z,100819.13
2022-10-10T06:28:41.234Z,100828.72
2022-10-10T06:31:15.686Z,100821.56
2022-10-10T06:33:45.372Z,100835.50
2022-10-10T06:36:17.375Z,100839.81
2022-10-10T06:38:45.703Z,100838.88
2022-10-10T06:41:13.886Z,100839.47
2022-10-10T06:43:42.254Z,100837.56
2022-10-10T06:46:11.702Z,100838.25
2022-10-10T06:48:39.299Z,100834.47
2022-10-10T06:51:08.851Z,100844.63
2022-10-10T06:53:36.713Z,100838.16
2022-10-10T06:56:05.017Z,100838.63
2022-10-10T06:58:34.247Z,100841.75
2022-10-10T07:01:05.248Z,100844.84
2022-10-10T07:03:34.226Z,100839.09
2022-10-10T07:06:02.975Z,100838.53
2022-10-10T07:08:31.295Z,100838.16
2022-10-10T07:10:58.907Z,100837.56
2022-10-10T07:13:26.709Z,100830.69
2022-10-10T07:15:54.340Z,100833.47
2022-10-10T07:18:22.345Z,100830.72
2022-10-10T07:20:51.290Z,100830.53
2022-10-10T07:23:18.858Z,100833.16
2022-10-10T07:25:46.401Z,100829.47
2022-10-10T07:28:14.025Z,100831.22
2022-10-10T07:30:43.583Z,100832.69
2022-10-10T07:33:11.201Z,100822.94
2022-10-10T07:35:38.899Z,100828.22
2022-10-10T07:38:08.255Z,100833.38
2022-10-10T07:40:35.994Z,100830.75
2022-10-10T07:43:03.555Z,100835.19
2022-10-10T07:45:31.103Z,100830.59
2022-10-10T07:47:58.687Z,100841.75
2022-10-10T07:50:26.225Z,100841.59
2022-10-10T07:52:53.792Z,100841.47
2022-10-10T07:55:22.651Z,100836.97
2022-10-10T07:57:53.451Z,100837.41
2022-10-10T08:00:21.330Z,100838.94
2022-10-10T08:02:48.987Z,100829.59
2022-10-10T08:05:16.580Z,100825.66
2022-10-10T08:07:44.131Z,100825.94
2022-10-10T08:10:12.188Z,100827.69
2022-10-10T08:12:41.298Z,100833.44
2022-10-10T08:17:43.118Z,100832.88
2022-10-10T08:20:11.250Z,100834.78
2022-10-10T08:22:38.993Z,100836.91
2022-10-10T08:25:07.678Z,100829.88
2022-10-10T08:27:35.249Z,100828.72
2022-10-10T08:30:05.282Z,100829.38
2022-10-10T08:32:32.898Z,100838.97
2022-10-10T08:35:00.510Z,100829.25
2022-10-10T08:37:31.843Z,100825.09
2022-10-10T08:40:02.926Z,100822.38
2022-10-10T08:42:34.601Z,100824.22
2022-10-10T08:45:10.487Z,100826.38
2022-10-10T08:47:44.738Z,100831.13
2022-10-10T08:50:17.560Z,100828.63
2022-10-10T08:52:52.073Z,100836.91
2022-10-10T08:55:22.819Z,100834.13
2022-10-10T08:57:52.889Z,100831.69
2022-10-10T09:00:24.827Z,100822.81
2022-10-10T09:02:54.526Z,100826.53
2022-10-10T09:05:32.770Z,100817.53
2022-10-10T09:08:12.669Z,100822.22
2022-10-10T09:10:47.915Z,100825.25
2022-10-10T09:13:25.709Z,100825.03
2022-10-10T09:15:57.882Z,100821.50
2022-10-10T09:18:42.262Z,100819.44
2022-10-10T09:21:16.345Z,100823.06
2022-10-10T09:23:51.687Z,100828.19
2022-10-10T09:26:24.076Z,100826.34
2022-10-10T09:28:56.834Z,100827.81
2022-10-10T09:31:34.046Z,100826.94
2022-10-10T09:34:06.417Z,100830.91
2022-10-10T09:36:37.116Z,100830.00
2022-10-10T09:39:07.801Z,100823.56
2022-10-10T09:41:40.276Z,100829.50
2022-10-10T09:44:12.578Z,100826.78
2022-10-10T09:46:41.982Z,100824.19
2022-10-10T09:49:15.349Z,100836.09
2022-10-10T09:51:43.521Z,100828.91
2022-10-10T09:54:12.544Z,100834.63
2022-10-10T09:56:45.436Z,100835.66
2022-10-10T09:59:37.744Z,100840.41
2022-10-10T10:02:15.088Z,100840.78
2022-10-10T10:04:42.885Z,100830.41
2022-10-10T10:07:21.650Z,100835.28
2022-10-10T10:09:51.602Z,100828.06
2022-10-10T10:12:23.510Z,100827.41
2022-10-10T10:14:54.173Z,100836.47
2022-10-10T10:17:24.711Z,100827.09
2022-10-10T10:19:52.577Z,100837.19
2022-10-10T10:22:31.088Z,100831.84
2022-10-10T10:24:59.019Z,100831.00
2022-10-10T10:27:29.122Z,100832.34
2022-10-10T10:29:59.518Z,100839.03
2022-10-10T10:32:46.146Z,100840.19
2022-10-10T10:35:24.110Z,100849.09
2022-10-10T10:38:17.528Z,100838.88
2022-10-10T10:40:55.378Z,100842.72
2022-10-10T10:43:54.934Z,100833.16
2022-10-10T10:46:31.282Z,100838.84
2022-10-10T10:49:03.880Z,100841.84
2022-10-10T10:51:43.872Z,100834.47
2022-10-10T10:54:27.510Z,100840.81
2022-10-10T10:57:06.601Z,100824.41
2022-10-10T11:00:20.341Z,100828.56
2022-10-10T11:02:56.076Z,100832.88
2022-10-10T11:05:41.979Z,100827.19
2022-10-10T11:08:42.963Z,100836.59
2022-10-10T11:11:42.316Z,100827.84
2022-10-10T11:14:21.141Z,100827.66
2022-10-10T11:16:53.688Z,100822.09
2022-10-10T11:19:29.019Z,100832.34
2022-10-10T11:22:04.152Z,100828.09
2022-10-10T11:24:42.121Z,100826.56
2022-10-10T11:27:18.816Z,100825.41
2022-10-10T11:29:56.223Z,100831.75
2022-10-10T11:32:29.132Z,100824.19
2022-10-10T11:35:08.494Z,100818.44
2022-10-10T11:37:46.187Z,100815.25
2022-10-10T11:40:28.003Z,100822.47
2022-10-10T11:43:00.676Z,100828.34
2022-10-10T11:45:32.002Z,100829.00
2022-10-10T11:48:11.519Z,100838.72
2022-10-10T11:50:42.965Z,100829.63
2022-10-10T11:53:20.379Z,100829.28
2022-10-10T11:55:55.537Z,100832.44
2022-10-10T11:58:28.951Z,100830.91
2022-10-10T12:01:00.443Z,100841.78
2022-10-10T12:03:28.092Z,100833.19
2022-10-10T12:06:00.996Z,100837.75
2022-10-10T12:08:37.699Z,100837.22
2022-10-10T12:11:16.344Z,100829.78
2022-10-10T12:13:47.111Z,100839.00
2022-10-10T12:16:18.173Z,100837.97
2022-10-10T12:18:48.043Z,100826.50
2022-10-10T12:21:17.799Z,100837.91
2022-10-10T12:23:50.209Z,100829.69
2022-10-10T12:26:21.138Z,100826.63
2022-10-10T12:29:03.990Z,100842.22
2022-10-10T12:31:37.525Z,100843.06
2022-10-10T12:34:16.962Z,100836.31
2022-10-10T12:37:12.906Z,100845.88
2022-10-10T12:40:03.680Z,100847.06
2022-10-10T12:42:33.826Z,100845.22
2022-10-10T12:45:01.927Z,100844.56
2022-10-10T12:48:03.422Z,100841.88
2022-10-10T12:50:26.726Z,100851.44
2022-10-10T12:52:57.513Z,100841.50
2022-10-10T12:55:29.966Z,100846.25
2022-10-10T12:58:01.906Z,100844.88
2022-10-10T13:00:37.069Z,100841.00
2022-10-10T13:03:11.071Z,100850.94
2022-10-10T13:05:41.872Z,100844.53
2022-10-10T13:08:14.586Z,100842.66
2022-10-10T13:10:44.135Z,100843.88
2022-10-10T13:13:19.406Z,100842.84
2022-10-10T13:15:53.542Z,100848.06
2022-10-10T13:18:34.409Z,100839.16
2022-10-10T13:21:03.203Z,100842.47
2022-10-10T13:23:31.398Z,100832.75
2022-10-10T13:26:00.762Z,100832.75
2022-10-10T13:28:29.283Z,100848.69
2022-10-10T13:30:57.217Z,100845.16
2022-10-10T13:33:32.279Z,100854.28
2022-10-10T13:36:07.740Z,100868.38
2022-10-10T13:38:36.171Z,100874.78
2022-10-10T13:41:05.954Z,100869.09
2022-10-10T13:43:34.311Z,100877.16
2022-10-10T13:46:04.333Z,100874.97
2022-10-10T13:48:41.437Z,100876.28
2022-10-10T13:51:11.201Z,100872.75
2022-10-10T13:53:48.225Z,100881.66
2022-10-10T13:56:21.517Z,100884.16
2022-10-10T13:58:51.762Z,100882.13
2022-10-10T14:01:35.623Z,100878.41
2022-10-10T14:04:08.708Z,100893.72
2022-10-10T14:06:36.765Z,100895.06
2022-10-10T14:09:10.217Z,100894.72
2022-10-10T14:11:41.692Z,100896.38
2022-10-10T14:14:15.929Z,100884.78
2022-10-10T14:16:44.101Z,100889.47
2022-10-10T14:19:18.838Z,100899.06
2022-10-10T14:21:46.660Z,100900.09
2022-10-10T14:24:16.128Z,100900.25
2022-10-10T14:26:45.238Z,100907.50
2022-10-10T14:29:15.538Z,100914.53
2022-10-10T14:31:44.005Z,100920.75
2022-10-10T14:34:12.829Z,100915.38
2022-10-10T14:36:45.438Z,100916.41
2022-10-10T14:39:14.761Z,100918.25
2022-10-10T14:41:42.507Z,100920.94
2022-10-10T14:44:11.815Z,100914.72
2022-10-10T14:46:41.132Z,100916.59
2022-10-10T14:49:17.243Z,100920.31
2022-10-10T14:51:44.879Z,100927.34
2022-10-10T14:54:14.065Z,100927.22
2022-10-10T14:57:07.314Z,100925.91
2022-10-10T14:59:47.600Z,100932.69
2022-10-10T15:02:21.600Z,100938.22
2022-10-10T15:04:49.247Z,100939.88
2022-10-10T15:07:17.463Z,100942.78
2022-10-10T15:12:34.221Z,100945.19
2022-10-10T15:15:03.116Z,100950.25
2022-10-10T15:17:33.592Z,100947.91
2022-10-10T15:20:01.276Z,100959.66
2022-10-10T15:22:30.322Z,100968.28
2022-10-10T15:24:58.146Z,100970.97
2022-10-10T15:27:27.858Z,100968.16
2022-10-10T15:29:55.827Z,100970.16
2022-10-10T15:32:24.961Z,100978.09
2022-10-10T15:34:53.466Z,100982.81
2022-10-10T15:37:21.100Z,100983.16
2022-10-10T15:39:48.666Z,100983.97
2022-10-10T15:42:22.325Z,100993.75
2022-10-10T15:44:50.819Z,101000.50
2022-10-10T15:47:21.312Z,101001.19
2022-10-10T15:49:51.057Z,101007.09
2022-10-10T15:52:19.386Z,101013.13
2022-10-10T15:54:49.409Z,101027.56
2022-10-10T15:57:18.939Z,101032.81
2022-10-10T15:59:47.249Z,101044.59
2022-10-10T16:02:15.080Z,101052.63
2022-10-10T16:04:43.108Z,101059.00
2022-10-10T16:07:26.844Z,101062.53
2022-10-10T16:09:56.170Z,101069.22
2022-10-10T16:12:23.728Z,101076.09
2022-10-10T16:14:51.484Z,101072.91
2022-10-10T16:17:23.109Z,101083.28
2022-10-10T16:19:51.173Z,101082.41
2022-10-10T16:22:21.210Z,101088.78
2022-10-10T16:25:21.318Z,101089.25
2022-10-10T16:27:37.330Z,101105.47
2022-10-10T16:30:05.866Z,101103.91
2022-10-10T16:32:36.918Z,101107.34
2022-10-10T16:35:09.574Z,101105.31
2022-10-10T16:37:38.926Z,101110.31
2022-10-10T16:40:08.355Z,101116.97
2022-10-10T16:42:36.100Z,101122.97
2022-10-10T16:45:04.100Z,101123.44
2022-10-10T16:47:31.655Z,101137.19
2022-10-10T16:49:59.242Z,101143.00
2022-10-10T16:52:26.942Z,101137.13
2022-10-10T16:54:55.911Z,101141.78
2022-10-10T16:57:23.565Z,101145.63
2022-10-10T16:59:51.111Z,101152.47
2022-10-10T17:02:18.879Z,101161.97
2022-10-10T17:04:46.401Z,101170.47
2022-10-10T17:07:14.231Z,101170.91
2022-10-10T17:09:41.815Z,101182.81
2022-10-10T17:12:10.786Z,101196.88
2022-10-10T17:14:38.365Z,101215.84
2022-10-10T17:17:12.233Z,101224.03
2022-10-10T17:19:40.469Z,101238.63
2022-10-10T17:22:08.236Z,101242.38
2022-10-10T17:24:36.501Z,101243.25
2022-10-10T17:27:04.213Z,101248.94
2022-10-10T17:29:33.640Z,101256.16
2022-10-10T17:32:05.995Z,101256.31
2022-10-10T17:34:34.799Z,101272.41
2022-10-10T17:37:02.797Z,101268.75
2022-10-10T17:39:30.508Z,101272.84
2022-10-10T17:41:58.096Z,101279.50
2022-10-10T17:44:25.809Z,101288.34
2022-10-10T17:46:54.756Z,101289.34
2022-10-10T17:49:22.337Z,101298.19
2022-10-10T17:51:49.960Z,101305.09
2022-10-10T17:54:18.257Z,101306.66
2022-10-10T17:56:46.069Z,101306.22
2022-10-10T17:59:14.073Z,101309.88
2022-10-10T18:01:41.758Z,101310.41
2022-10-10T18:04:11.943Z,101323.19
2022-10-10T18:06:39.752Z,101329.38
2022-10-10T18:09:07.581Z,101328.69
2022-10-10T18:11:35.356Z,101348.22
2022-10-10T18:14:02.937Z,101350.47
2022-10-10T18:16:34.058Z,101356.94
2022-10-10T18:19:02.468Z,101360.84
2022-10-10T18:21:31.410Z,101358.47
2022-10-10T18:23:59.164Z,101358.47
2022-10-10T18:26:29.329Z,101373.06
2022-10-10T18:28:57.444Z,101373.63
2022-10-10T18:31:27.467Z,101380.72
2022-10-10T18:33:55.686Z,101384.09
2022-10-10T18:36:26.433Z,101395.59
2022-10-10T18:38:55.619Z,101404.00
2022-10-10T18:41:25.107Z,101412.56
2022-10-10T18:43:52.953Z,101411.84
2022-10-10T18:46:22.096Z,101415.63
2022-10-10T18:48:53.762Z,101423.16
2022-10-10T18:51:24.130Z,101433.41
2022-10-10T18:53:53.333Z,101428.59
2022-10-10T18:56:24.507Z,101429.84
2022-10-10T18:58:54.566Z,101438.22
2022-10-10T19:01:25.161Z,101434.13
2022-10-10T19:03:54.121Z,101432.56
2022-10-10T19:06:22.637Z,101438.41
2022-10-10T19:08:52.158Z,101436.88
2022-10-10T19:11:22.915Z,101436.28
2022-10-10T19:13:51.023Z,101441.84
2022-10-10T19:16:19.048Z,101448.44
2022-10-10T19:18:47.064Z,101446.16
2022-10-10T19:21:16.210Z,101451.00
2022-10-10T19:23:44.994Z,101454.91
2022-10-10T19:26:14.937Z,101458.06
2022-10-10T19:28:44.747Z,101468.25
2022-10-10T19:31:14.759Z,101469.63
2022-10-10T19:33:44.013Z,101471.81
2022-10-10T19:36:13.073Z,101473.28
2022-10-10T19:38:42.380Z,101475.47
2022-10-10T19:41:12.680Z,101477.66
2022-10-10T19:43:40.657Z,101474.66
2022-10-10T19:46:11.791Z,101486.66
2022-10-10T19:48:39.432Z,101494.16
2022-10-10T19:51:09.676Z,101496.47
2022-10-10T19:53:38.133Z,101505.66
2022-10-10T19:56:08.009Z,101501.66
2022-10-10T19:58:36.913Z,101500.47
2022-10-10T20:01:09.431Z,101501.78
2022-10-10T20:03:37.179Z,101511.09
2022-10-10T20:06:06.166Z,101512.44
2022-10-10T20:08:34.305Z,101516.41
2022-10-10T20:11:02.173Z,101517.59
2022-10-10T20:13:29.794Z,101523.41
2022-10-10T20:16:01.633Z,101529.09
2022-10-10T20:18:31.274Z,101533.09
2022-10-10T20:20:58.906Z,101533.56
2022-10-10T20:23:27.542Z,101540.19
2022-10-10T20:25:55.174Z,101542.34
2022-10-10T20:28:23.156Z,101542.81
2022-10-10T20:30:52.937Z,101542.31
2022-10-10T20:33:21.910Z,101548.94
2022-10-10T20:36:02.262Z,101563.53
2022-10-10T20:38:30.007Z,101569.31
2022-10-10T20:40:57.774Z,101568.78
2022-10-10T20:43:25.344Z,101571.88
2022-10-10T20:45:52.947Z,101580.19
2022-10-10T20:48:20.505Z,101590.34
2022-10-10T20:50:48.075Z,101593.31
2022-10-10T20:53:16.965Z,101591.97
2022-10-10T20:55:44.633Z,101600.38
2022-10-10T20:58:12.217Z,101595.50
2022-10-10T21:00:43.018Z,101599.56
2022-10-10T21:03:10.627Z,101599.13
2022-10-10T21:05:38.488Z,101607.53
2022-10-10T21:08:06.540Z,101607.22
2022-10-10T21:10:39.056Z,101610.31
2022-10-10T21:13:07.643Z,101610.75
2022-10-10T21:15:35.233Z,101615.53
2022-10-10T21:18:02.838Z,101617.75
2022-10-10T21:20:30.371Z,101618.91
2022-10-10T21:22:57.934Z,101622.13
2022-10-10T21:25:25.566Z,101619.03
2022-10-10T21:27:54.452Z,101622.09
2022-10-10T21:30:24.430Z,101624.34
2022-10-10T21:32:51.966Z,101635.25
2022-10-10T21:35:19.567Z,101637.38
2022-10-10T21:37:47.320Z,101639.47
2022-10-10T21:40:15.111Z,101638.84
2022-10-10T21:42:42.802Z,101650.59
2022-10-10T21:45:12.257Z,101658.75
2022-10-10T21:47:42.473Z,101651.00
2022-10-10T21:50:11.090Z,101659.09
2022-10-10T21:52:38.619Z,101657.47
2022-10-10T21:55:07.019Z,101660.13
2022-10-10T21:57:34.773Z,101662.03
2022-10-10T22:00:02.357Z,101661.28
2022-10-10T22:02:34.220Z,101661.38
2022-10-10T22:05:02.467Z,101660.63
2022-10-10T22:07:30.858Z,101665.09
2022-10-10T22:09:58.759Z,101665.19
2022-10-10T22:12:26.324Z,101668.78
2022-10-10T22:14:53.845Z,101669.72
2022-10-10T22:17:21.492Z,101675.13
2022-10-10T22:19:50.441Z,101670.78
2022-10-10T22:22:18.037Z,101678.75
2022-10-10T22:24:45.891Z,101669.09
2022-10-10T22:27:13.467Z,101675.34
2022-10-10T22:29:40.997Z,101682.44
2022-10-10T22:32:08.518Z,101687.84
2022-10-10T22:34:36.142Z,101682.66
2022-10-10T22:37:05.206Z,101686.31
2022-10-10T22:39:33.010Z,101685.47
2022-10-10T22:42:00.559Z,101697.03
2022-10-10T22:44:28.271Z,101691.84
2022-10-10T22:46:55.828Z,101698.09
2022-10-10T22:49:23.462Z,101690.28
2022-10-10T22:51:51.518Z,101703.84
2022-10-10T22:54:20.526Z,101696.09
2022-10-10T22:56:48.079Z,101699.81
2022-10-10T22:59:15.711Z,101706.25
2022-10-10T23:01:43.274Z,101707.38
2022-10-10T23:04:13.271Z,101706.63
2022-10-10T23:06:41.279Z,101704.25
2022-10-10T23:09:09.414Z,101711.66
2022-10-10T23:11:38.268Z,101705.72
2022-10-10T23:14:06.565Z,101713.00
2022-10-10T23:16:35.711Z,101716.75
2022-10-10T23:19:06.206Z,101717.06
2022-10-10T23:21:33.760Z,101707.59
2022-10-10T23:24:01.317Z,101721.88
2022-10-10T23:26:29.988Z,101724.72
2022-10-10T23:28:58.927Z,101721.31
2022-10-10T23:31:26.588Z,101721.50
2022-10-10T23:33:54.175Z,101724.44
2022-10-10T23:36:21.963Z,101729.06
2022-10-10T23:38:49.762Z,101732.00
2022-10-10T23:41:17.434Z,101732.94
2022-10-10T23:43:45.284Z,101729.72
2022-10-10T23:46:15.405Z,101727.25
2022-10-10T23:48:43.351Z,101732.72
2022-10-10T23:51:11.214Z,101727.72
2022-10-10T23:53:38.872Z,101732.31
2022-10-10T23:56:06.984Z,101730.72
2022-10-10T23:58:35.095Z,101736.22
